createdAt,value
2022-08-31T00:02:48.542Z,93400.28
2022-08-31T00:05:57.729Z,93409.72
2022-08-31T00:09:02.966Z,93404.25
2022-08-31T00:12:06.553Z,93404.94
2022-08-31T00:15:15.115Z,93406.88
2022-08-31T00:18:19.929Z,93406.13
2022-08-31T00:21:29.158Z,93400.47
2022-08-31T00:24:33.366Z,93403.34
2022-08-31T00:27:36.943Z,93402.97
2022-08-31T00:30:42.045Z,93396.47
2022-08-31T00:33:45.971Z,93391.38
2022-08-31T00:36:50.468Z,93394.28
2022-08-31T00:39:55.452Z,93390.38
2022-08-31T00:43:01.357Z,93387.19
2022-08-31T00:46:05.136Z,93384.75
2022-08-31T00:49:18.609Z,93371.50
2022-08-31T00:52:28.256Z,93387.22
2022-08-31T00:55:38.919Z,93382.81
2022-08-31T00:58:43.819Z,93381.69
2022-08-31T01:01:49.810Z,93370.03
2022-08-31T01:04:53.854Z,93371.03
2022-08-31T01:08:00.251Z,93356.44
2022-08-31T01:11:04.145Z,93364.03
2022-08-31T01:14:13.459Z,93355.41
2022-08-31T01:17:18.273Z,93356.91
2022-08-31T01:20:49.198Z,93354.31
2022-08-31T01:23:55.823Z,93338.97
2022-08-31T01:27:05.628Z,93343.22
2022-08-31T01:30:12.704Z,93350.16
2022-08-31T01:33:17.065Z,93357.06
2022-08-31T01:36:21.268Z,93355.09
2022-08-31T01:39:26.183Z,93359.81
2022-08-31T01:42:32.929Z,93349.03
2022-08-31T01:45:37.387Z,93361.00
2022-08-31T01:48:44.278Z,93356.53
2022-08-31T01:51:48.998Z,93359.00
2022-08-31T01:54:52.855Z,93350.50
2022-08-31T01:58:01.973Z,93361.75
2022-08-31T02:01:32.675Z,93359.34
2022-08-31T02:04:38.090Z,93350.06
2022-08-31T02:07:42.661Z,93346.28
2022-08-31T02:10:47.219Z,93360.81
2022-08-31T02:13:51.546Z,93345.66
2022-08-31T02:16:55.612Z,93341.78
2022-08-31T02:19:59.360Z,93330.22
2022-08-31T02:23:04.445Z,93334.44
2022-08-31T02:26:08.568Z,93340.63
2022-08-31T02:29:12.959Z,93328.78
2022-08-31T02:32:20.011Z,93331.03
2022-08-31T02:35:24.529Z,93335.31
2022-08-31T02:38:28.449Z,93317.81
2022-08-31T02:41:32.591Z,93308.94
2022-08-31T02:44:36.765Z,93329.53
2022-08-31T02:47:41.852Z,93323.06
2022-08-31T02:51:06.297Z,93319.72
2022-08-31T02:54:10.147Z,93322.00
2022-08-31T02:57:13.900Z,93314.50
2022-08-31T03:00:20.260Z,93318.81
2022-08-31T03:03:24.030Z,93311.47
2022-08-31T03:06:28.341Z,93322.63
2022-08-31T03:09:33.235Z,93310.56
2022-08-31T03:12:39.276Z,93302.91
2022-08-31T03:15:43.396Z,93321.22
2022-08-31T03:18:49.611Z,93320.72
2022-08-31T03:21:56.086Z,93295.81
2022-08-31T03:25:01.136Z,93294.75
2022-08-31T03:28:05.358Z,93284.50
2022-08-31T03:31:12.226Z,93294.09
2022-08-31T03:34:16.181Z,93288.50
2022-08-31T03:37:22.491Z,93271.16
2022-08-31T03:40:26.946Z,93267.75
2022-08-31T03:43:31.092Z,93278.69
2022-08-31T03:46:36.374Z,93279.56
2022-08-31T03:49:40.688Z,93278.22
2022-08-31T03:52:51.305Z,93283.00
2022-08-31T03:56:03.202Z,93268.44
2022-08-31T03:59:10.606Z,93264.63
2022-08-31T04:02:37.842Z,93275.22
2022-08-31T04:06:00.203Z,93276.03
2022-08-31T04:09:22.744Z,93271.91
2022-08-31T04:12:49.238Z,93270.84
2022-08-31T04:16:13.137Z,93252.13
2022-08-31T04:19:42.784Z,93260.22
2022-08-31T04:23:06.550Z,93262.28
2022-08-31T04:26:19.881Z,93259.16
2022-08-31T04:29:24.518Z,93252.75
2022-08-31T04:32:29.743Z,93260.97
2022-08-31T04:35:34.056Z,93244.41
2022-08-31T04:38:38.229Z,93249.13
2022-08-31T04:41:42.771Z,93236.28
2022-08-31T04:44:48.674Z,93227.34
2022-08-31T04:47:53.035Z,93237.69
2022-08-31T04:51:02.778Z,93241.47
2022-08-31T04:54:10.692Z,93248.72
2022-08-31T04:57:14.419Z,93224.31
2022-08-31T05:00:19.163Z,93227.44
2022-08-31T05:03:46.299Z,93235.91
2022-08-31T05:06:51.643Z,93232.97
2022-08-31T05:09:56.028Z,93213.00
2022-08-31T05:12:59.928Z,93228.09
2022-08-31T05:16:06.122Z,93223.81
2022-08-31T05:19:10.566Z,93227.13
2022-08-31T05:22:14.930Z,93224.66
2022-08-31T05:25:20.525Z,93218.56
2022-08-31T05:28:24.349Z,93230.25
2022-08-31T05:31:32.100Z,93217.47
2022-08-31T05:34:36.675Z,93222.56
2022-08-31T05:37:40.471Z,93215.31
2022-08-31T05:40:44.745Z,93217.22
2022-08-31T05:43:49.536Z,93216.28
2022-08-31T05:46:57.404Z,93217.78
2022-08-31T05:50:08.642Z,93214.25
2022-08-31T05:53:15.047Z,93222.78
2022-08-31T05:56:22.639Z,93203.22
2022-08-31T05:59:28.374Z,93211.41
2022-08-31T06:02:32.455Z,93227.91
2022-08-31T06:05:36.384Z,93217.66
2022-08-31T06:08:41.949Z,93206.25
2022-08-31T06:11:46.838Z,93219.00
2022-08-31T06:14:54.411Z,93213.44
2022-08-31T06:17:58.209Z,93214.72
2022-08-31T06:21:10.029Z,93221.84
2022-08-31T06:24:15.312Z,93220.13
2022-08-31T06:27:20.199Z,93186.94
2022-08-31T06:30:27.779Z,93198.47
2022-08-31T06:33:33.570Z,93191.34
2022-08-31T06:36:48.749Z,93192.88
2022-08-31T06:40:15.508Z,93198.03
2022-08-31T06:43:19.666Z,93195.25
2022-08-31T06:46:36.912Z,93201.31
2022-08-31T06:49:57.698Z,93193.66
2022-08-31T06:53:01.760Z,93196.78
2022-08-31T06:56:31.569Z,93194.22
2022-08-31T07:00:05.910Z,93193.63
2022-08-31T07:03:33.712Z,93219.38
2022-08-31T07:06:42.216Z,93201.06
2022-08-31T07:09:46.374Z,93194.88
2022-08-31T07:12:50.731Z,93191.50
2022-08-31T07:16:04.503Z,93189.56
2022-08-31T07:19:09.515Z,93180.19
2022-08-31T07:22:15.483Z,93189.88
2022-08-31T07:25:22.432Z,93173.34
2022-08-31T07:28:26.830Z,93175.59
2022-08-31T07:31:51.060Z,93180.63
2022-08-31T07:34:59.853Z,93170.63
2022-08-31T07:38:25.427Z,93170.09
2022-08-31T07:41:48.450Z,93162.59
2022-08-31T07:44:55.227Z,93173.31
2022-08-31T07:48:00.383Z,93157.53
2022-08-31T07:51:24.288Z,93153.47
2022-08-31T07:54:44.965Z,93151.78
2022-08-31T07:58:13.954Z,93142.19
2022-08-31T08:01:18.521Z,93137.16
2022-08-31T08:04:27.947Z,93136.47
2022-08-31T08:07:36.791Z,93139.44
2022-08-31T08:11:07.238Z,93141.97
2022-08-31T08:14:12.983Z,93127.88
2022-08-31T08:17:35.994Z,93132.41
2022-08-31T08:20:42.606Z,93127.97
2022-08-31T08:23:47.121Z,93139.41
2022-08-31T08:26:54.399Z,93142.06
2022-08-31T08:30:19.054Z,93156.31
2022-08-31T08:33:23.952Z,93136.88
2022-08-31T08:36:36.691Z,93146.22
2022-08-31T08:39:45.727Z,93135.91
2022-08-31T08:42:56.848Z,93132.59
2022-08-31T08:46:15.232Z,93135.03
2022-08-31T08:49:30.470Z,93141.75
2022-08-31T08:52:42.078Z,93144.19
2022-08-31T08:55:46.311Z,93147.13
2022-08-31T08:58:49.731Z,93144.41
2022-08-31T09:02:02.999Z,93146.28
2022-08-31T09:05:15.949Z,93149.81
2022-08-31T09:08:55.583Z,93150.41
2022-08-31T09:12:23.478Z,93147.16
2022-08-31T09:15:42.812Z,93137.03
2022-08-31T09:19:07.596Z,93143.88
2022-08-31T09:22:11.754Z,93128.03
2022-08-31T09:25:21.043Z,93115.41
2022-08-31T09:28:45.740Z,93118.84
2022-08-31T09:31:49.594Z,93109.38
2022-08-31T09:35:30.097Z,93109.31
2022-08-31T09:38:40.751Z,93110.69
2022-08-31T09:41:46.144Z,93097.41
2022-08-31T09:44:51.565Z,93098.72
2022-08-31T09:48:02.104Z,93097.41
2022-08-31T09:51:05.942Z,93097.44
2022-08-31T09:54:57.568Z,93102.16
2022-08-31T09:58:08.380Z,93103.56
2022-08-31T10:01:18.702Z,93106.22
2022-08-31T10:04:29.074Z,93104.19
2022-08-31T10:08:05.245Z,93110.25
2022-08-31T10:11:16.963Z,93105.97
2022-08-31T10:14:30.279Z,93110.63
2022-08-31T10:17:43.589Z,93115.88
2022-08-31T10:21:08.659Z,93109.06
2022-08-31T10:24:28.537Z,93105.59
2022-08-31T10:27:43.482Z,93110.50
2022-08-31T10:30:58.820Z,93101.88
2022-08-31T10:34:30.143Z,93093.00
2022-08-31T10:37:50.155Z,93098.16
2022-08-31T10:41:18.067Z,93096.16
2022-08-31T10:44:58.271Z,93094.28
2022-08-31T10:48:05.557Z,93083.88
2022-08-31T10:51:23.198Z,93099.81
2022-08-31T10:55:06.063Z,93088.13
2022-08-31T10:58:27.290Z,93091.03
2022-08-31T11:01:40.151Z,93095.31
2022-08-31T11:04:56.178Z,93094.78
2022-08-31T11:08:25.212Z,93099.56
2022-08-31T11:11:42.443Z,93100.88
2022-08-31T11:15:13.600Z,93100.25
2022-08-31T11:18:51.150Z,93092.88
2022-08-31T11:22:17.049Z,93097.00
2022-08-31T11:25:54.323Z,93102.38
2022-08-31T11:29:23.048Z,93101.03
2022-08-31T11:32:54.617Z,93103.78
2022-08-31T11:36:10.579Z,93100.50
2022-08-31T11:39:13.609Z,93103.91
2022-08-31T11:42:19.687Z,93091.16
2022-08-31T11:45:32.363Z,93110.63
2022-08-31T11:48:54.963Z,93110.63
2022-08-31T11:51:59.016Z,93113.31
2022-08-31T11:55:20.603Z,93112.72
2022-08-31T11:58:30.892Z,93106.03
2022-08-31T12:01:36.461Z,93113.41
2022-08-31T12:04:44.319Z,93118.16
2022-08-31T12:07:48.986Z,93117.50
2022-08-31T12:11:13.077Z,93122.94
2022-08-31T12:14:50.701Z,93120.97
2022-08-31T12:18:12.592Z,93127.03
2022-08-31T12:22:03.268Z,93127.00
2022-08-31T12:25:42.383Z,93124.31
2022-08-31T12:29:09.090Z,93129.72
2022-08-31T12:32:22.016Z,93130.41
2022-08-31T12:35:28.812Z,93137.84
2022-08-31T12:38:32.891Z,93134.47
2022-08-31T12:41:43.446Z,93137.19
2022-08-31T12:44:52.956Z,93132.53
2022-08-31T12:48:41.471Z,93126.44
2022-08-31T12:52:00.342Z,93126.50
2022-08-31T12:55:24.087Z,93133.88
2022-08-31T12:58:37.366Z,93126.50
2022-08-31T13:01:46.178Z,93126.53
2022-08-31T13:04:50.454Z,93134.56
2022-08-31T13:07:55.203Z,93131.91
2022-08-31T13:11:25.317Z,93120.50
2022-08-31T13:14:44.516Z,93123.81
2022-08-31T13:17:48.071Z,93131.22
2022-08-31T13:20:57.504Z,93119.78
2022-08-31T13:24:09.292Z,93133.22
2022-08-31T13:27:19.913Z,93104.34
2022-08-31T13:30:25.558Z,93107.72
2022-08-31T13:33:35.808Z,93112.41
2022-08-31T13:36:58.916Z,93110.38
2022-08-31T13:40:12.667Z,93115.75
2022-08-31T13:43:27.175Z,93108.34
2022-08-31T13:46:43.213Z,93111.06
2022-08-31T13:49:49.677Z,93111.72
2022-08-31T13:53:24.968Z,93111.00
2022-08-31T13:56:48.763Z,93115.00
2022-08-31T13:59:53.934Z,93113.63
2022-08-31T14:02:59.505Z,93116.97
2022-08-31T14:06:24.728Z,93120.31
2022-08-31T14:09:28.542Z,93118.97
2022-08-31T14:12:38.494Z,93116.28
2022-08-31T14:15:51.041Z,93126.97
2022-08-31T14:18:56.859Z,93120.28
2022-08-31T14:22:29.353Z,93118.25
2022-08-31T14:25:35.224Z,93116.84
2022-08-31T14:28:41.450Z,93118.88
2022-08-31T14:31:53.666Z,93112.19
2022-08-31T14:34:58.373Z,93116.91
2022-08-31T14:38:02.076Z,93108.19
2022-08-31T14:41:08.128Z,93105.50
2022-08-31T14:44:14.505Z,93111.53
2022-08-31T14:47:18.114Z,93110.16
2022-08-31T14:50:27.393Z,93116.81
2022-08-31T14:53:32.973Z,93112.75
2022-08-31T14:56:48.890Z,93110.75
2022-08-31T14:59:58.215Z,93124.13
2022-08-31T15:03:03.375Z,93118.03
2022-08-31T15:06:09.468Z,93108.66
2022-08-31T15:09:14.384Z,93105.28
2022-08-31T15:12:18.636Z,93107.22
2022-08-31T15:15:23.010Z,93107.19
2022-08-31T15:18:27.711Z,93103.81
2022-08-31T15:21:32.457Z,93102.50
2022-08-31T15:24:39.445Z,93101.16
2022-08-31T15:27:45.117Z,93107.06
2022-08-31T15:30:48.887Z,93106.97
2022-08-31T15:33:57.695Z,93108.22
2022-08-31T15:37:04.444Z,93099.41
2022-08-31T15:40:10.939Z,93097.97
2022-08-31T15:43:16.289Z,93098.66
2022-08-31T15:46:40.982Z,93096.59
2022-08-31T15:49:45.004Z,93079.75
2022-08-31T15:52:51.906Z,93084.44
2022-08-31T15:56:06.833Z,93074.97
2022-08-31T15:59:12.310Z,93076.34
2022-08-31T16:02:16.239Z,93081.78
2022-08-31T16:05:20.845Z,93081.06
2022-08-31T16:08:24.569Z,93081.47
2022-08-31T16:11:32.180Z,93086.66
2022-08-31T16:14:35.517Z,93087.78
2022-08-31T16:17:41.260Z,93079.66
2022-08-31T16:20:48.546Z,93076.31
2022-08-31T16:24:00.408Z,93080.50
2022-08-31T16:27:06.893Z,93071.28
2022-08-31T16:30:12.378Z,93056.69
2022-08-31T16:33:16.110Z,93064.81
2022-08-31T16:36:21.230Z,93058.88
2022-08-31T16:39:27.921Z,93059.66
2022-08-31T16:42:32.429Z,93067.13
2022-08-31T16:45:39.369Z,93066.66
2022-08-31T16:49:02.841Z,93060.00
2022-08-31T16:52:29.714Z,93067.50
2022-08-31T16:55:33.267Z,93058.19
2022-08-31T16:58:51.920Z,93058.88
2022-08-31T17:01:57.546Z,93057.56
2022-08-31T17:05:05.004Z,93058.88
2022-08-31T17:08:15.692Z,93050.91
2022-08-31T17:11:24.126Z,93061.66
2022-08-31T17:14:39.141Z,93059.66
2022-08-31T17:17:42.846Z,93050.94
2022-08-31T17:20:46.173Z,93046.91
2022-08-31T17:23:51.891Z,93038.19
2022-08-31T17:27:00.486Z,93046.28
2022-08-31T17:30:06.671Z,93052.97
2022-08-31T17:33:13.476Z,93047.63
2022-08-31T17:36:21.226Z,93051.59
2022-08-31T17:39:26.307Z,93046.22
2022-08-31T17:42:32.070Z,93034.81
2022-08-31T17:45:37.494Z,93047.53
2022-08-31T17:48:45.679Z,93036.19
2022-08-31T17:51:50.760Z,93025.47
2022-08-31T17:54:55.821Z,93032.88
2022-08-31T17:57:59.421Z,93028.19
2022-08-31T18:01:03.895Z,93026.84
2022-08-31T18:04:08.251Z,93026.13
2022-08-31T18:07:12.455Z,93025.41
2022-08-31T18:10:16.365Z,93018.69
2022-08-31T18:13:21.327Z,93024.03
2022-08-31T18:16:28.865Z,93024.03
2022-08-31T18:19:34.474Z,93022.66
2022-08-31T18:22:37.499Z,93015.28
2022-08-31T18:25:41.356Z,93021.31
2022-08-31T18:28:47.109Z,93020.66
2022-08-31T18:31:53.359Z,93017.28
2022-08-31T18:34:57.376Z,93017.31
2022-08-31T18:38:03.479Z,93026.78
2022-08-31T18:41:26.570Z,93022.13
2022-08-31T18:44:48.512Z,93026.16
2022-08-31T18:48:23.243Z,93021.47
2022-08-31T18:51:23.194Z,93032.19
2022-08-31T18:54:26.919Z,93027.50
2022-08-31T18:57:30.639Z,93023.50
2022-08-31T19:00:34.839Z,93022.19
2022-08-31T19:03:39.876Z,93021.47
2022-08-31T19:06:44.052Z,93014.84
2022-08-31T19:09:49.046Z,93016.81
2022-08-31T19:12:56.458Z,93025.53
2022-08-31T19:16:03.798Z,93023.50
2022-08-31T19:19:12.837Z,93022.81
2022-08-31T19:22:18.607Z,93018.09
2022-08-31T19:25:23.030Z,93018.75
2022-08-31T19:28:26.680Z,93012.75
2022-08-31T19:31:30.995Z,93022.16
2022-08-31T19:34:38.866Z,93018.13
2022-08-31T19:37:42.655Z,93019.53
2022-08-31T19:40:47.031Z,93015.53
2022-08-31T19:43:56.022Z,93014.22
2022-08-31T19:47:24.376Z,93016.91
2022-08-31T19:50:29.146Z,93016.19
2022-08-31T19:53:32.934Z,93023.63
2022-08-31T19:56:40.548Z,93011.53
2022-08-31T19:59:45.496Z,93017.59
2022-08-31T20:02:48.986Z,93018.94
2022-08-31T20:05:52.034Z,93005.56
2022-08-31T20:08:56.222Z,92998.84
2022-08-31T20:12:00.570Z,93010.22
2022-08-31T20:15:05.346Z,92998.88
2022-08-31T20:18:09.886Z,92998.19
2022-08-31T20:21:18.318Z,92994.19
2022-08-31T20:24:27.023Z,92986.78
2022-08-31T20:27:31.880Z,92992.16
2022-08-31T20:30:40.817Z,93005.50
2022-08-31T20:33:47.729Z,93016.88
2022-08-31T20:36:55.105Z,93008.88
2022-08-31T20:40:01.092Z,92998.81
2022-08-31T20:43:07.670Z,93007.53
2022-08-31T20:46:31.313Z,92994.78
2022-08-31T20:49:42.290Z,92986.06
2022-08-31T20:52:46.550Z,92988.09
2022-08-31T20:55:51.773Z,92974.66
2022-08-31T20:58:55.828Z,92986.06
2022-08-31T21:02:03.834Z,92986.03
2022-08-31T21:08:38.752Z,92994.72
2022-08-31T21:11:44.664Z,92992.06
2022-08-31T21:14:48.488Z,92987.34
2022-08-31T21:17:56.195Z,92994.03
2022-08-31T21:21:06.035Z,92996.06
2022-08-31T21:24:12.957Z,92988.66
2022-08-31T21:27:18.030Z,92999.41
2022-08-31T21:30:21.899Z,92996.06
2022-08-31T21:33:25.366Z,92989.38
2022-08-31T21:36:32.960Z,92986.00
2022-08-31T21:39:38.994Z,92990.03
2022-08-31T21:42:42.802Z,92996.06
2022-08-31T21:45:46.521Z,92994.06
2022-08-31T21:48:53.128Z,92998.06
2022-08-31T21:51:58.680Z,93004.06
2022-08-31T21:55:06.110Z,93009.47
2022-08-31T21:58:10.095Z,93007.47
2022-08-31T22:01:18.843Z,93004.84
2022-08-31T22:04:24.061Z,93008.91
2022-08-31T22:07:28.232Z,93008.22
2022-08-31T22:10:32.996Z,93002.91
2022-08-31T22:13:38.597Z,92996.84
2022-08-31T22:16:47.035Z,92998.19
2022-08-31T22:19:51.148Z,93002.22
2022-08-31T22:22:54.542Z,93002.22
2022-08-31T22:25:57.942Z,93003.56
2022-08-31T22:29:01.715Z,93001.56
2022-08-31T22:32:12.500Z,92984.78
2022-08-31T22:35:17.001Z,92999.56
2022-08-31T22:38:20.400Z,92986.78
2022-08-31T22:41:25.049Z,92988.16
2022-08-31T22:44:32.878Z,92988.16
2022-08-31T22:47:49.299Z,92996.22
2022-08-31T22:50:53.915Z,92995.53
2022-08-31T22:53:57.160Z,92993.53
2022-08-31T22:57:00.956Z,93002.25
2022-08-31T23:00:18.139Z,93002.25
2022-08-31T23:03:22.891Z,93004.94
2022-08-31T23:06:27.306Z,93007.66
2022-08-31T23:09:31.955Z,93005.66
2022-08-31T23:12:35.018Z,92998.94
2022-08-31T23:15:39.043Z,93006.97
2022-08-31T23:18:44.654Z,93002.97
2022-08-31T23:21:57.734Z,92998.94
2022-08-31T23:25:01.599Z,93006.31
2022-08-31T23:28:05.669Z,93000.97
2022-08-31T23:31:09.794Z,93005.63
2022-08-31T23:34:15.294Z,93004.94
2022-08-31T23:37:23.681Z,93009.00
2022-08-31T23:40:31.952Z,92998.91
2022-08-31T23:43:38.617Z,92996.91
2022-08-31T23:46:46.551Z,92996.19
2022-08-31T23:49:53.888Z,92983.41
2022-08-31T23:52:57.942Z,92972.66
2022-08-31T23:56:02.595Z,92980.00
2022-08-31T23:59:09.795Z,92977.91
